Accueil
METAR-TAF:

METAR-TAF

Aéroports :

Nenana, Alaska, États-Unis

latitude: 64-33N, longitude: 149-05W, altitude: 110 m

Observation

Le bulletin a été fait il y a 17 minutes, à 10:53 UTC
Vent 18 kt de est avec des rafales jusqu'à 30 kt
Température 3°C
Humidité 60%
Pression 987 hPa
Visibilité: 16.1 km
Ciel clair

METAR: PANN 111053Z AUTO 08018G30KT 10SM CLR 03/M04 A2915 RMK AO2 PK WND 08030/1027 SLP879 T00281044 TSNO

Heure: 02:10 (11:10 UTC)


TAF: absent

Observations et prévisions météorologiques de plus de 4000 aéroports (messages METAR et TAF).

Les stations disponibles sont représentées par des disques jaunes et rouges sur la carte.

Passer la souris dessus pour voir le nom de la station.

Cliquer dessus pour voir les observations et prévisions météorologiques.

Pour changer de carte: cliquez sur les boutons verts avec une croix noire pour zoomer, sur le bouton vert avec un tiret pour effectuer un zoom arrière, ou sur les flèches vertes pour les cartes adjacentes.


METAR-TAF: